sensor_id;sensor_type;location;lat;lon;timestamp;temperature;humidity
84296;SHT31;74464;42.688;23.304;2024-01-30T00:00:11;-0.34;63.26
84296;SHT31;74464;42.688;23.304;2024-01-30T00:02:36;-0.38;63.43
84296;SHT31;74464;42.688;23.304;2024-01-30T00:05:03;-0.42;63.36
84296;SHT31;74464;42.688;23.304;2024-01-30T00:07:29;-0.40;63.30
84296;SHT31;74464;42.688;23.304;2024-01-30T00:09:56;-0.47;63.23
84296;SHT31;74464;42.688;23.304;2024-01-30T00:12:23;-0.48;62.75
84296;SHT31;74464;42.688;23.304;2024-01-30T00:14:48;-0.48;63.22
84296;SHT31;74464;42.688;23.304;2024-01-30T00:17:14;-0.48;63.19
84296;SHT31;74464;42.688;23.304;2024-01-30T00:19:40;-0.48;63.29
84296;SHT31;74464;42.688;23.304;2024-01-30T00:22:05;-0.51;63.23
84296;SHT31;74464;42.688;23.304;2024-01-30T00:24:32;-0.45;62.89
84296;SHT31;74464;42.688;23.304;2024-01-30T00:27:00;-0.44;63.14
84296;SHT31;74464;42.688;23.304;2024-01-30T00:29:26;-0.45;63.07
84296;SHT31;74464;42.688;23.304;2024-01-30T00:31:57;-0.45;63.05
84296;SHT31;74464;42.688;23.304;2024-01-30T00:34:22;-0.44;63.01
84296;SHT31;74464;42.688;23.304;2024-01-30T00:36:49;-0.51;63.28
84296;SHT31;74464;42.688;23.304;2024-01-30T00:39:15;-0.48;63.27
84296;SHT31;74464;42.688;23.304;2024-01-30T00:41:42;-0.50;63.16
84296;SHT31;74464;42.688;23.304;2024-01-30T00:44:07;-0.53;63.40
84296;SHT31;74464;42.688;23.304;2024-01-30T00:46:34;-0.58;63.61
84296;SHT31;74464;42.688;23.304;2024-01-30T00:49:00;-0.61;63.38
84296;SHT31;74464;42.688;23.304;2024-01-30T00:51:26;-0.61;63.51
84296;SHT31;74464;42.688;23.304;2024-01-30T00:53:54;-0.56;63.27
84296;SHT31;74464;42.688;23.304;2024-01-30T00:56:20;-0.58;63.60
84296;SHT31;74464;42.688;23.304;2024-01-30T00:58:46;-0.58;64.05
84296;SHT31;74464;42.688;23.304;2024-01-30T01:01:12;-0.60;64.29
84296;SHT31;74464;42.688;23.304;2024-01-30T01:03:44;-0.57;64.05
84296;SHT31;74464;42.688;23.304;2024-01-30T01:06:11;-0.44;63.44
84296;SHT31;74464;42.688;23.304;2024-01-30T01:08:37;-0.45;63.33
84296;SHT31;74464;42.688;23.304;2024-01-30T01:11:02;-0.54;63.20
84296;SHT31;74464;42.688;23.304;2024-01-30T01:13:30;-0.54;63.15
84296;SHT31;74464;42.688;23.304;2024-01-30T01:15:55;-0.54;63.33
84296;SHT31;74464;42.688;23.304;2024-01-30T01:18:21;-0.54;63.25
84296;SHT31;74464;42.688;23.304;2024-01-30T01:20:46;-0.56;63.28
84296;SHT31;74464;42.688;23.304;2024-01-30T01:23:12;-0.51;63.31
84296;SHT31;74464;42.688;23.304;2024-01-30T01:25:38;-0.51;63.43
84296;SHT31;74464;42.688;23.304;2024-01-30T01:28:04;-0.51;63.27
84296;SHT31;74464;42.688;23.304;2024-01-30T01:30:30;-0.53;63.14
84296;SHT31;74464;42.688;23.304;2024-01-30T01:32:56;-0.50;63.16
84296;SHT31;74464;42.688;23.304;2024-01-30T01:35:25;-0.54;63.00
84296;SHT31;74464;42.688;23.304;2024-01-30T01:37:53;-0.58;63.13
84296;SHT31;74464;42.688;23.304;2024-01-30T01:40:24;-0.65;63.43
84296;SHT31;74464;42.688;23.304;2024-01-30T01:42:56;-0.68;63.51
84296;SHT31;74464;42.688;23.304;2024-01-30T01:45:21;-0.71;63.78
84296;SHT31;74464;42.688;23.304;2024-01-30T01:47:51;-0.78;64.03
84296;SHT31;74464;42.688;23.304;2024-01-30T01:50:18;-0.81;63.85
84296;SHT31;74464;42.688;23.304;2024-01-30T01:52:48;-0.81;63.94
84296;SHT31;74464;42.688;23.304;2024-01-30T01:55:16;-0.81;64.03
84296;SHT31;74464;42.688;23.304;2024-01-30T01:57:44;-0.72;63.69
84296;SHT31;74464;42.688;23.304;2024-01-30T02:00:10;-0.78;63.83
84296;SHT31;74464;42.688;23.304;2024-01-30T02:02:37;-0.85;64.05
84296;SHT31;74464;42.688;23.304;2024-01-30T02:05:04;-0.85;64.20
84296;SHT31;74464;42.688;23.304;2024-01-30T02:07:31;-0.86;64.06
84296;SHT31;74464;42.688;23.304;2024-01-30T02:09:57;-0.86;64.05
84296;SHT31;74464;42.688;23.304;2024-01-30T02:12:22;-0.82;63.63
84296;SHT31;74464;42.688;23.304;2024-01-30T02:14:48;-0.76;63.36
84296;SHT31;74464;42.688;23.304;2024-01-30T02:17:17;-0.86;63.66
84296;SHT31;74464;42.688;23.304;2024-01-30T02:19:43;-0.81;63.03
84296;SHT31;74464;42.688;23.304;2024-01-30T02:22:09;-0.76;63.29
84296;SHT31;74464;42.688;23.304;2024-01-30T02:24:36;-0.72;63.09
84296;SHT31;74464;42.688;23.304;2024-01-30T02:27:04;-0.72;62.68
84296;SHT31;74464;42.688;23.304;2024-01-30T02:29:30;-0.65;62.69
84296;SHT31;74464;42.688;23.304;2024-01-30T02:31:56;-0.60;62.79
84296;SHT31;74464;42.688;23.304;2024-01-30T02:34:22;-0.53;62.32
84296;SHT31;74464;42.688;23.304;2024-01-30T02:36:47;-0.58;62.60
84296;SHT31;74464;42.688;23.304;2024-01-30T02:39:14;-0.58;62.73
84296;SHT31;74464;42.688;23.304;2024-01-30T02:41:40;-0.60;62.55
84296;SHT31;74464;42.688;23.304;2024-01-30T02:44:07;-0.53;62.54
84296;SHT31;74464;42.688;23.304;2024-01-30T02:46:34;-0.50;62.20
84296;SHT31;74464;42.688;23.304;2024-01-30T02:48:59;-0.47;62.17
84296;SHT31;74464;42.688;23.304;2024-01-30T02:51:25;-0.37;61.54
84296;SHT31;74464;42.688;23.304;2024-01-30T02:53:50;-0.38;62.10
84296;SHT31;74464;42.688;23.304;2024-01-30T02:56:16;-0.34;61.38
84296;SHT31;74464;42.688;23.304;2024-01-30T02:58:42;-0.36;61.79
84296;SHT31;74464;42.688;23.304;2024-01-30T03:01:09;-0.36;61.92
84296;SHT31;74464;42.688;23.304;2024-01-30T03:03:34;-0.36;62.11
84296;SHT31;74464;42.688;23.304;2024-01-30T03:06:02;-0.26;61.55
84296;SHT31;74464;42.688;23.304;2024-01-30T03:08:28;-0.33;61.54
84296;SHT31;74464;42.688;23.304;2024-01-30T03:10:54;-0.45;61.78
84296;SHT31;74464;42.688;23.304;2024-01-30T03:13:19;-0.44;62.00
84296;SHT31;74464;42.688;23.304;2024-01-30T03:15:45;-0.44;61.75
84296;SHT31;74464;42.688;23.304;2024-01-30T03:18:12;-0.53;62.12
84296;SHT31;74464;42.688;23.304;2024-01-30T03:20:37;-0.57;62.36
84296;SHT31;74464;42.688;23.304;2024-01-30T03:23:03;-0.57;62.21
84296;SHT31;74464;42.688;23.304;2024-01-30T03:25:30;-0.60;61.87
84296;SHT31;74464;42.688;23.304;2024-01-30T03:27:56;-0.62;62.20
84296;SHT31;74464;42.688;23.304;2024-01-30T03:30:22;-0.58;61.92
84296;SHT31;74464;42.688;23.304;2024-01-30T03:32:49;-0.51;61.77
84296;SHT31;74464;42.688;23.304;2024-01-30T03:35:15;-0.50;61.48
84296;SHT31;74464;42.688;23.304;2024-01-30T03:37:42;-0.44;61.34
84296;SHT31;74464;42.688;23.304;2024-01-30T03:40:08;-0.40;60.97
84296;SHT31;74464;42.688;23.304;2024-01-30T03:42:35;-0.42;60.84
84296;SHT31;74464;42.688;23.304;2024-01-30T03:45:02;-0.34;60.69
84296;SHT31;74464;42.688;23.304;2024-01-30T03:47:28;-0.34;60.57
84296;SHT31;74464;42.688;23.304;2024-01-30T03:49:53;-0.20;59.58
84296;SHT31;74464;42.688;23.304;2024-01-30T03:52:20;-0.17;59.54
84296;SHT31;74464;42.688;23.304;2024-01-30T03:54:46;-0.27;59.41
84296;SHT31;74464;42.688;23.304;2024-01-30T03:57:13;-0.48;60.08
84296;SHT31;74464;42.688;23.304;2024-01-30T03:59:41;-0.51;60.06
84296;SHT31;74464;42.688;23.304;2024-01-30T04:02:07;-0.53;60.41
84296;SHT31;74464;42.688;23.304;2024-01-30T04:04:33;-0.57;60.72
84296;SHT31;74464;42.688;23.304;2024-01-30T04:06:58;-0.62;61.21
84296;SHT31;74464;42.688;23.304;2024-01-30T04:09:25;-0.60;60.85
84296;SHT31;74464;42.688;23.304;2024-01-30T04:11:53;-0.62;60.62
84296;SHT31;74464;42.688;23.304;2024-01-30T04:14:19;-0.71;60.56
84296;SHT31;74464;42.688;23.304;2024-01-30T04:16:46;-0.71;60.56
84296;SHT31;74464;42.688;23.304;2024-01-30T04:19:11;-0.74;60.75
84296;SHT31;74464;42.688;23.304;2024-01-30T04:21:37;-0.72;60.40
84296;SHT31;74464;42.688;23.304;2024-01-30T04:24:05;-0.76;60.59
84296;SHT31;74464;42.688;23.304;2024-01-30T04:26:31;-0.69;60.55
84296;SHT31;74464;42.688;23.304;2024-01-30T04:28:58;-0.79;60.24
84296;SHT31;74464;42.688;23.304;2024-01-30T04:31:24;-0.76;60.61
84296;SHT31;74464;42.688;23.304;2024-01-30T04:33:49;-0.74;60.27
84296;SHT31;74464;42.688;23.304;2024-01-30T04:36:17;-0.69;60.16
84296;SHT31;74464;42.688;23.304;2024-01-30T04:38:43;-0.72;60.41
84296;SHT31;74464;42.688;23.304;2024-01-30T04:41:08;-0.67;59.98
84296;SHT31;74464;42.688;23.304;2024-01-30T04:43:34;-0.72;60.46
84296;SHT31;74464;42.688;23.304;2024-01-30T04:46:00;-0.64;59.95
84296;SHT31;74464;42.688;23.304;2024-01-30T04:48:26;-0.64;59.69
84296;SHT31;74464;42.688;23.304;2024-01-30T04:50:52;-0.61;59.81
84296;SHT31;74464;42.688;23.304;2024-01-30T04:53:17;-0.65;60.37
84296;SHT31;74464;42.688;23.304;2024-01-30T04:55:44;-0.67;60.60
84296;SHT31;74464;42.688;23.304;2024-01-30T04:58:09;-0.71;60.32
84296;SHT31;74464;42.688;23.304;2024-01-30T05:00:35;-0.71;60.32
84296;SHT31;74464;42.688;23.304;2024-01-30T05:03:02;-0.74;60.56
84296;SHT31;74464;42.688;23.304;2024-01-30T05:05:28;-0.72;60.42
84296;SHT31;74464;42.688;23.304;2024-01-30T05:07:53;-0.85;60.84
84296;SHT31;74464;42.688;23.304;2024-01-30T05:10:19;-0.91;61.26
84296;SHT31;74464;42.688;23.304;2024-01-30T05:12:45;-1.00;61.94
84296;SHT31;74464;42.688;23.304;2024-01-30T05:15:10;-0.93;61.94
84296;SHT31;74464;42.688;23.304;2024-01-30T05:17:36;-0.97;62.31
84296;SHT31;74464;42.688;23.304;2024-01-30T05:20:02;-1.00;62.66
84296;SHT31;74464;42.688;23.304;2024-01-30T05:22:29;-1.02;62.68
84296;SHT31;74464;42.688;23.304;2024-01-30T05:24:56;-0.99;62.66
84296;SHT31;74464;42.688;23.304;2024-01-30T05:27:21;-1.07;62.79
84296;SHT31;74464;42.688;23.304;2024-01-30T05:29:48;-1.09;62.90
84296;SHT31;74464;42.688;23.304;2024-01-30T05:32:16;-1.12;63.03
84296;SHT31;74464;42.688;23.304;2024-01-30T05:34:41;-1.13;63.04
84296;SHT31;74464;42.688;23.304;2024-01-30T05:37:07;-1.14;63.01
84296;SHT31;74464;42.688;23.304;2024-01-30T05:39:34;-1.16;63.15
84296;SHT31;74464;42.688;23.304;2024-01-30T05:42:01;-1.24;63.46
84296;SHT31;74464;42.688;23.304;2024-01-30T05:44:30;-1.26;63.40
84296;SHT31;74464;42.688;23.304;2024-01-30T05:46:57;-1.24;62.86
84296;SHT31;74464;42.688;23.304;2024-01-30T05:49:23;-1.21;62.40
84296;SHT31;74464;42.688;23.304;2024-01-30T05:51:48;-1.23;61.74
84296;SHT31;74464;42.688;23.304;2024-01-30T05:54:14;-1.21;62.37
84296;SHT31;74464;42.688;23.304;2024-01-30T05:56:40;-1.21;62.59
84296;SHT31;74464;42.688;23.304;2024-01-30T05:59:05;-1.19;62.26
84296;SHT31;74464;42.688;23.304;2024-01-30T06:01:31;-1.23;62.35
84296;SHT31;74464;42.688;23.304;2024-01-30T06:03:56;-1.21;62.32
84296;SHT31;74464;42.688;23.304;2024-01-30T06:06:22;-1.21;62.24
84296;SHT31;74464;42.688;23.304;2024-01-30T06:08:48;-1.20;62.35
84296;SHT31;74464;42.688;23.304;2024-01-30T06:11:13;-1.16;61.47
84296;SHT31;74464;42.688;23.304;2024-01-30T06:13:41;-1.20;61.60
84296;SHT31;74464;42.688;23.304;2024-01-30T06:16:09;-1.29;61.57
84296;SHT31;74464;42.688;23.304;2024-01-30T06:18:36;-1.24;61.74
84296;SHT31;74464;42.688;23.304;2024-01-30T06:21:05;-1.16;61.30
84296;SHT31;74464;42.688;23.304;2024-01-30T06:23:31;-1.19;61.64
84296;SHT31;74464;42.688;23.304;2024-01-30T06:25:58;-1.12;61.74
84296;SHT31;74464;42.688;23.304;2024-01-30T06:28:23;-1.03;60.93
84296;SHT31;74464;42.688;23.304;2024-01-30T06:30:49;-0.93;60.21
84296;SHT31;74464;42.688;23.304;2024-01-30T06:33:14;-0.97;59.98
84296;SHT31;74464;42.688;23.304;2024-01-30T06:35:42;-0.91;59.25
84296;SHT31;74464;42.688;23.304;2024-01-30T06:38:09;-0.84;59.04
84296;SHT31;74464;42.688;23.304;2024-01-30T06:40:36;-0.79;59.01
84296;SHT31;74464;42.688;23.304;2024-01-30T06:43:04;-0.69;58.39
84296;SHT31;74464;42.688;23.304;2024-01-30T06:45:38;-0.60;57.85
84296;SHT31;74464;42.688;23.304;2024-01-30T06:48:08;-0.56;57.64
84296;SHT31;74464;42.688;23.304;2024-01-30T06:50:33;-0.50;57.59
84296;SHT31;74464;42.688;23.304;2024-01-30T06:52:59;-0.45;57.66
84296;SHT31;74464;42.688;23.304;2024-01-30T06:55:25;-0.31;57.11
84296;SHT31;74464;42.688;23.304;2024-01-30T06:57:50;-0.05;56.60
84296;SHT31;74464;42.688;23.304;2024-01-30T07:00:17;0.30;55.30
84296;SHT31;74464;42.688;23.304;2024-01-30T07:02:45;0.54;55.07
84296;SHT31;74464;42.688;23.304;2024-01-30T07:05:20;0.57;55.09
84296;SHT31;74464;42.688;23.304;2024-01-30T07:07:47;0.53;54.77
84296;SHT31;74464;42.688;23.304;2024-01-30T07:10:13;0.50;53.76
84296;SHT31;74464;42.688;23.304;2024-01-30T07:12:39;0.67;53.35
84296;SHT31;74464;42.688;23.304;2024-01-30T07:15:05;0.81;53.66
84296;SHT31;74464;42.688;23.304;2024-01-30T07:17:34;0.85;52.81
84296;SHT31;74464;42.688;23.304;2024-01-30T07:20:00;0.83;52.43
84296;SHT31;74464;42.688;23.304;2024-01-30T07:22:47;0.92;52.45
84296;SHT31;74464;42.688;23.304;2024-01-30T07:25:14;1.04;52.41
84296;SHT31;74464;42.688;23.304;2024-01-30T07:27:41;1.04;51.93
84296;SHT31;74464;42.688;23.304;2024-01-30T07:30:08;0.92;52.15
84296;SHT31;74464;42.688;23.304;2024-01-30T07:32:33;0.88;52.34
84296;SHT31;74464;42.688;23.304;2024-01-30T07:34:59;0.94;51.89
84296;SHT31;74464;42.688;23.304;2024-01-30T07:37:25;0.91;52.07
84296;SHT31;74464;42.688;23.304;2024-01-30T07:40:00;0.97;50.94
84296;SHT31;74464;42.688;23.304;2024-01-30T07:42:26;1.08;50.97
84296;SHT31;74464;42.688;23.304;2024-01-30T07:44:54;1.05;50.68
84296;SHT31;74464;42.688;23.304;2024-01-30T07:47:21;0.98;51.09
84296;SHT31;74464;42.688;23.304;2024-01-30T07:49:47;1.14;50.62
84296;SHT31;74464;42.688;23.304;2024-01-30T07:52:15;1.18;51.19
84296;SHT31;74464;42.688;23.304;2024-01-30T07:54:50;1.32;50.37
84296;SHT31;74464;42.688;23.304;2024-01-30T07:57:17;1.32;50.68
84296;SHT31;74464;42.688;23.304;2024-01-30T07:59:45;1.49;49.75
84296;SHT31;74464;42.688;23.304;2024-01-30T08:02:16;1.38;49.91
84296;SHT31;74464;42.688;23.304;2024-01-30T08:04:42;1.42;49.69
84296;SHT31;74464;42.688;23.304;2024-01-30T08:07:08;0.95;50.56
84296;SHT31;74464;42.688;23.304;2024-01-30T08:09:33;0.97;50.87
84296;SHT31;74464;42.688;23.304;2024-01-30T08:12:01;0.97;51.15
84296;SHT31;74464;42.688;23.304;2024-01-30T08:14:27;1.12;51.31
84296;SHT31;74464;42.688;23.304;2024-01-30T08:16:56;1.26;50.74
84296;SHT31;74464;42.688;23.304;2024-01-30T08:19:21;1.35;49.49
84296;SHT31;74464;42.688;23.304;2024-01-30T08:21:48;1.44;49.54
84296;SHT31;74464;42.688;23.304;2024-01-30T08:24:14;1.46;49.64
84296;SHT31;74464;42.688;23.304;2024-01-30T08:26:40;1.54;49.41
84296;SHT31;74464;42.688;23.304;2024-01-30T08:29:05;1.49;48.92
84296;SHT31;74464;42.688;23.304;2024-01-30T08:31:32;1.36;49.81
84296;SHT31;74464;42.688;23.304;2024-01-30T08:33:58;1.53;49.77
84296;SHT31;74464;42.688;23.304;2024-01-30T08:36:25;1.54;48.92
84296;SHT31;74464;42.688;23.304;2024-01-30T08:38:52;1.19;49.70
84296;SHT31;74464;42.688;23.304;2024-01-30T08:41:18;1.14;50.39
84296;SHT31;74464;42.688;23.304;2024-01-30T08:43:43;1.24;50.52
84296;SHT31;74464;42.688;23.304;2024-01-30T08:46:11;1.28;50.55
84296;SHT31;74464;42.688;23.304;2024-01-30T08:48:37;1.32;50.32
84296;SHT31;74464;42.688;23.304;2024-01-30T08:51:02;1.26;50.83
84296;SHT31;74464;42.688;23.304;2024-01-30T08:53:28;1.04;51.18
84296;SHT31;74464;42.688;23.304;2024-01-30T08:55:54;1.22;51.08
84296;SHT31;74464;42.688;23.304;2024-01-30T08:58:20;1.12;50.87
84296;SHT31;74464;42.688;23.304;2024-01-30T09:00:47;0.95;51.57
84296;SHT31;74464;42.688;23.304;2024-01-30T09:03:14;1.12;52.08
84296;SHT31;74464;42.688;23.304;2024-01-30T09:05:39;1.38;51.79
84296;SHT31;74464;42.688;23.304;2024-01-30T09:08:05;1.56;51.15
84296;SHT31;74464;42.688;23.304;2024-01-30T09:10:31;1.56;52.15
84296;SHT31;74464;42.688;23.304;2024-01-30T09:12:56;1.43;52.19
84296;SHT31;74464;42.688;23.304;2024-01-30T09:15:23;1.53;52.51
84296;SHT31;74464;42.688;23.304;2024-01-30T09:17:51;1.60;52.97
84296;SHT31;74464;42.688;23.304;2024-01-30T09:20:18;1.84;52.30
84296;SHT31;74464;42.688;23.304;2024-01-30T09:22:45;1.88;51.81
84296;SHT31;74464;42.688;23.304;2024-01-30T09:25:11;1.87;51.17
84296;SHT31;74464;42.688;23.304;2024-01-30T09:27:37;1.64;51.62
84296;SHT31;74464;42.688;23.304;2024-01-30T09:30:03;1.35;52.76
84296;SHT31;74464;42.688;23.304;2024-01-30T09:32:29;1.15;53.37
84296;SHT31;74464;42.688;23.304;2024-01-30T09:34:56;1.11;53.72
84296;SHT31;74464;42.688;23.304;2024-01-30T09:37:22;1.21;53.52
84296;SHT31;74464;42.688;23.304;2024-01-30T09:39:47;1.16;53.32
84296;SHT31;74464;42.688;23.304;2024-01-30T09:42:33;0.87;54.04
84296;SHT31;74464;42.688;23.304;2024-01-30T09:45:02;0.67;54.53
84296;SHT31;74464;42.688;23.304;2024-01-30T09:47:40;0.70;54.69
84296;SHT31;74464;42.688;23.304;2024-01-30T09:50:10;0.85;54.47
84296;SHT31;74464;42.688;23.304;2024-01-30T09:52:36;1.04;55.71
84296;SHT31;74464;42.688;23.304;2024-01-30T09:55:04;1.49;54.27
84296;SHT31;74464;42.688;23.304;2024-01-30T09:57:30;2.01;53.36
84296;SHT31;74464;42.688;23.304;2024-01-30T09:59:55;2.05;50.78
84296;SHT31;74464;42.688;23.304;2024-01-30T10:02:21;1.64;51.57
84296;SHT31;74464;42.688;23.304;2024-01-30T10:04:51;1.71;51.35
84296;SHT31;74464;42.688;23.304;2024-01-30T10:07:19;1.78;51.40
84296;SHT31;74464;42.688;23.304;2024-01-30T10:09:45;1.99;51.28
84296;SHT31;74464;42.688;23.304;2024-01-30T10:12:12;1.97;51.27
84296;SHT31;74464;42.688;23.304;2024-01-30T10:14:39;1.90;50.83
84296;SHT31;74464;42.688;23.304;2024-01-30T10:17:06;1.80;51.09
84296;SHT31;74464;42.688;23.304;2024-01-30T10:19:32;2.01;51.14
84296;SHT31;74464;42.688;23.304;2024-01-30T10:21:59;1.67;51.31
84296;SHT31;74464;42.688;23.304;2024-01-30T10:24:26;1.56;51.69
84296;SHT31;74464;42.688;23.304;2024-01-30T10:26:53;1.52;51.66
84296;SHT31;74464;42.688;23.304;2024-01-30T10:29:20;1.56;51.89
84296;SHT31;74464;42.688;23.304;2024-01-30T10:31:57;1.82;51.35
84296;SHT31;74464;42.688;23.304;2024-01-30T10:34:23;2.15;50.76
84296;SHT31;74464;42.688;23.304;2024-01-30T10:36:50;2.15;50.41
84296;SHT31;74464;42.688;23.304;2024-01-30T10:39:22;2.11;50.75
84296;SHT31;74464;42.688;23.304;2024-01-30T10:41:52;1.87;50.87
84296;SHT31;74464;42.688;23.304;2024-01-30T10:44:22;2.07;50.76
84296;SHT31;74464;42.688;23.304;2024-01-30T10:46:53;2.25;49.97
84296;SHT31;74464;42.688;23.304;2024-01-30T10:49:21;2.61;49.34
84296;SHT31;74464;42.688;23.304;2024-01-30T10:51:48;2.91;48.59
84296;SHT31;74464;42.688;23.304;2024-01-30T10:54:18;3.18;47.70
84296;SHT31;74464;42.688;23.304;2024-01-30T10:56:46;2.74;48.23
84296;SHT31;74464;42.688;23.304;2024-01-30T10:59:13;2.46;48.57
84296;SHT31;74464;42.688;23.304;2024-01-30T11:01:40;2.60;49.19
84296;SHT31;74464;42.688;23.304;2024-01-30T11:04:06;2.61;48.40
84296;SHT31;74464;42.688;23.304;2024-01-30T11:06:41;2.24;49.75
84296;SHT31;74464;42.688;23.304;2024-01-30T11:09:11;2.24;50.09
84296;SHT31;74464;42.688;23.304;2024-01-30T11:11:52;2.15;50.02
84296;SHT31;74464;42.688;23.304;2024-01-30T11:14:29;1.90;51.12
84296;SHT31;74464;42.688;23.304;2024-01-30T11:16:58;2.16;50.56
84296;SHT31;74464;42.688;23.304;2024-01-30T11:19:26;2.21;50.05
84296;SHT31;74464;42.688;23.304;2024-01-30T11:21:56;2.46;49.50
84296;SHT31;74464;42.688;23.304;2024-01-30T11:24:26;2.42;49.50
84296;SHT31;74464;42.688;23.304;2024-01-30T11:26:59;2.35;49.36
84296;SHT31;74464;42.688;23.304;2024-01-30T11:29:25;2.57;49.45
84296;SHT31;74464;42.688;23.304;2024-01-30T11:31:56;2.83;48.80
84296;SHT31;74464;42.688;23.304;2024-01-30T11:34:22;2.46;49.46
84296;SHT31;74464;42.688;23.304;2024-01-30T11:36:53;2.58;48.92
84296;SHT31;74464;42.688;23.304;2024-01-30T11:39:32;2.46;49.57
84296;SHT31;74464;42.688;23.304;2024-01-30T11:41:59;2.44;49.31
84296;SHT31;74464;42.688;23.304;2024-01-30T11:44:26;2.40;50.05
84296;SHT31;74464;42.688;23.304;2024-01-30T11:46:52;2.30;50.24
84296;SHT31;74464;42.688;23.304;2024-01-30T11:49:19;2.37;49.86
84296;SHT31;74464;42.688;23.304;2024-01-30T11:51:54;2.30;50.50
84296;SHT31;74464;42.688;23.304;2024-01-30T11:54:20;2.12;50.90
84296;SHT31;74464;42.688;23.304;2024-01-30T11:56:46;2.22;50.86
84296;SHT31;74464;42.688;23.304;2024-01-30T11:59:15;2.19;50.47
84296;SHT31;74464;42.688;23.304;2024-01-30T12:01:42;2.12;51.29
84296;SHT31;74464;42.688;23.304;2024-01-30T12:04:09;2.05;51.14
84296;SHT31;74464;42.688;23.304;2024-01-30T12:06:35;1.88;51.50
84296;SHT31;74464;42.688;23.304;2024-01-30T12:09:04;1.52;52.63
84296;SHT31;74464;42.688;23.304;2024-01-30T12:11:31;1.56;52.68
84296;SHT31;74464;42.688;23.304;2024-01-30T12:13:58;1.73;52.42
84296;SHT31;74464;42.688;23.304;2024-01-30T12:16:24;1.94;51.97
84296;SHT31;74464;42.688;23.304;2024-01-30T12:18:59;1.91;51.44
84296;SHT31;74464;42.688;23.304;2024-01-30T12:21:26;1.84;51.92
84296;SHT31;74464;42.688;23.304;2024-01-30T12:23:53;2.01;51.35
84296;SHT31;74464;42.688;23.304;2024-01-30T12:26:19;1.82;51.95
84296;SHT31;74464;42.688;23.304;2024-01-30T12:28:53;2.05;51.51
84296;SHT31;74464;42.688;23.304;2024-01-30T12:31:32;2.22;50.94
84296;SHT31;74464;42.688;23.304;2024-01-30T12:34:00;2.33;50.81
84296;SHT31;74464;42.688;23.304;2024-01-30T12:36:26;2.42;50.43
84296;SHT31;74464;42.688;23.304;2024-01-30T12:38:51;2.53;50.04
84296;SHT31;74464;42.688;23.304;2024-01-30T12:41:19;2.57;49.40
84296;SHT31;74464;42.688;23.304;2024-01-30T12:43:45;2.22;50.36
84296;SHT31;74464;42.688;23.304;2024-01-30T12:46:13;2.40;50.29
84296;SHT31;74464;42.688;23.304;2024-01-30T12:48:38;2.36;50.37
84296;SHT31;74464;42.688;23.304;2024-01-30T12:51:05;2.46;49.86
84296;SHT31;74464;42.688;23.304;2024-01-30T12:53:31;2.12;50.41
84296;SHT31;74464;42.688;23.304;2024-01-30T12:55:57;2.11;51.10
84296;SHT31;74464;42.688;23.304;2024-01-30T12:58:23;2.24;50.22
84296;SHT31;74464;42.688;23.304;2024-01-30T13:00:51;2.37;49.77
84296;SHT31;74464;42.688;23.304;2024-01-30T13:03:17;2.54;49.62
84296;SHT31;74464;42.688;23.304;2024-01-30T13:05:43;2.65;49.57
84296;SHT31;74464;42.688;23.304;2024-01-30T13:08:11;2.80;49.29
84296;SHT31;74464;42.688;23.304;2024-01-30T13:10:38;2.73;48.83
84296;SHT31;74464;42.688;23.304;2024-01-30T13:13:04;2.78;49.19
84296;SHT31;74464;42.688;23.304;2024-01-30T13:15:31;2.67;49.20
84296;SHT31;74464;42.688;23.304;2024-01-30T13:17:57;2.57;49.64
84296;SHT31;74464;42.688;23.304;2024-01-30T13:20:23;2.49;49.91
84296;SHT31;74464;42.688;23.304;2024-01-30T13:22:49;2.52;50.06
84296;SHT31;74464;42.688;23.304;2024-01-30T13:25:16;2.36;50.15
84296;SHT31;74464;42.688;23.304;2024-01-30T13:27:43;2.25;50.70
84296;SHT31;74464;42.688;23.304;2024-01-30T13:30:09;2.14;51.03
84296;SHT31;74464;42.688;23.304;2024-01-30T13:32:35;2.14;51.43
84296;SHT31;74464;42.688;23.304;2024-01-30T13:35:01;2.07;51.63
84296;SHT31;74464;42.688;23.304;2024-01-30T13:37:30;2.24;51.05
84296;SHT31;74464;42.688;23.304;2024-01-30T13:39:58;2.15;51.36
84296;SHT31;74464;42.688;23.304;2024-01-30T13:42:23;2.15;51.50
84296;SHT31;74464;42.688;23.304;2024-01-30T13:44:49;2.07;51.51
84296;SHT31;74464;42.688;23.304;2024-01-30T13:47:18;2.01;51.91
84296;SHT31;74464;42.688;23.304;2024-01-30T13:49:46;2.11;52.03
84296;SHT31;74464;42.688;23.304;2024-01-30T13:52:13;2.21;51.84
84296;SHT31;74464;42.688;23.304;2024-01-30T13:54:40;1.97;51.96
84296;SHT31;74464;42.688;23.304;2024-01-30T13:57:05;1.87;52.33
84296;SHT31;74464;42.688;23.304;2024-01-30T13:59:34;2.08;52.27
84296;SHT31;74464;42.688;23.304;2024-01-30T14:01:59;2.08;51.78
84296;SHT31;74464;42.688;23.304;2024-01-30T14:04:26;1.99;52.33
84296;SHT31;74464;42.688;23.304;2024-01-30T14:06:54;2.09;52.01
84296;SHT31;74464;42.688;23.304;2024-01-30T14:09:20;2.04;52.57
84296;SHT31;74464;42.688;23.304;2024-01-30T14:11:46;1.90;52.98
84296;SHT31;74464;42.688;23.304;2024-01-30T14:14:12;1.78;53.26
84296;SHT31;74464;42.688;23.304;2024-01-30T14:16:37;1.73;53.00
84296;SHT31;74464;42.688;23.304;2024-01-30T14:19:06;1.85;53.18
84296;SHT31;74464;42.688;23.304;2024-01-30T14:21:32;1.68;53.27
84296;SHT31;74464;42.688;23.304;2024-01-30T14:23:59;1.71;53.32
84296;SHT31;74464;42.688;23.304;2024-01-30T14:26:24;1.78;53.06
84296;SHT31;74464;42.688;23.304;2024-01-30T14:28:50;1.84;53.07
84296;SHT31;74464;42.688;23.304;2024-01-30T14:31:17;1.87;52.21
84296;SHT31;74464;42.688;23.304;2024-01-30T14:33:44;1.85;52.86
84296;SHT31;74464;42.688;23.304;2024-01-30T14:36:11;1.93;53.33
84296;SHT31;74464;42.688;23.304;2024-01-30T14:38:37;2.18;54.17
84296;SHT31;74464;42.688;23.304;2024-01-30T14:41:04;2.40;52.56
84296;SHT31;74464;42.688;23.304;2024-01-30T14:43:31;2.04;52.83
84296;SHT31;74464;42.688;23.304;2024-01-30T14:45:56;2.07;52.91
84296;SHT31;74464;42.688;23.304;2024-01-30T14:48:24;1.98;53.19
84296;SHT31;74464;42.688;23.304;2024-01-30T14:50:50;1.70;54.01
84296;SHT31;74464;42.688;23.304;2024-01-30T14:53:15;1.60;54.22
84296;SHT31;74464;42.688;23.304;2024-01-30T14:55:41;1.52;54.39
84296;SHT31;74464;42.688;23.304;2024-01-30T14:58:07;1.42;54.87
84296;SHT31;74464;42.688;23.304;2024-01-30T15:00:32;1.36;55.01
84296;SHT31;74464;42.688;23.304;2024-01-30T15:03:00;1.26;55.26
84296;SHT31;74464;42.688;23.304;2024-01-30T15:05:29;1.28;55.61
84296;SHT31;74464;42.688;23.304;2024-01-30T15:07:56;1.14;55.92
84296;SHT31;74464;42.688;23.304;2024-01-30T15:10:23;1.11;56.06
84296;SHT31;74464;42.688;23.304;2024-01-30T15:12:48;1.08;56.33
84296;SHT31;74464;42.688;23.304;2024-01-30T15:15:17;1.02;55.92
84296;SHT31;74464;42.688;23.304;2024-01-30T15:17:45;0.91;56.38
84296;SHT31;74464;42.688;23.304;2024-01-30T15:20:12;0.87;56.56
84296;SHT31;74464;42.688;23.304;2024-01-30T15:22:38;0.88;56.50